createdAt,value
2022-09-20T00:00:58.670Z,0
2022-09-20T00:01:58.508Z,0
2022-09-20T00:02:58.286Z,0
2022-09-20T00:03:58.292Z,0
2022-09-20T00:04:58.816Z,0
2022-09-20T00:05:58.065Z,0
2022-09-20T00:06:58.342Z,0
2022-09-20T00:07:58.097Z,0
2022-09-20T00:08:58.384Z,0
2022-09-20T00:09:58.411Z,0
2022-09-20T00:10:58.681Z,0
2022-09-20T00:11:58.467Z,0
2022-09-20T00:12:58.446Z,0
2022-09-20T00:13:58.707Z,0
2022-09-20T00:14:58.486Z,0
2022-09-20T00:15:58.820Z,0
2022-09-20T00:16:59.187Z,0
2022-09-20T00:17:58.645Z,0
2022-09-20T00:18:58.343Z,0
2022-09-20T00:19:58.849Z,0
2022-09-20T00:20:58.860Z,0
2022-09-20T00:21:58.876Z,0
2022-09-20T00:22:58.890Z,0
2022-09-20T00:23:58.659Z,0
2022-09-20T00:24:58.420Z,0
2022-09-20T00:25:58.951Z,0
2022-09-20T00:26:58.958Z,0
2022-09-20T00:27:58.987Z,0
2022-09-20T00:28:58.573Z,0
2022-09-20T00:29:58.804Z,0
2022-09-20T00:30:58.815Z,0
2022-09-20T00:31:59.624Z,0
2022-09-20T00:32:58.826Z,0
2022-09-20T00:33:58.862Z,0
2022-09-20T00:34:58.902Z,0
2022-09-20T00:35:59.135Z,0
2022-09-20T00:36:59.160Z,0
2022-09-20T00:37:58.912Z,0
2022-09-20T00:38:58.676Z,0
2022-09-20T00:39:59.284Z,0
2022-09-20T00:40:58.971Z,0
2022-09-20T00:41:58.976Z,0
2022-09-20T00:42:59.290Z,0
2022-09-20T00:43:59.375Z,0
2022-09-20T00:44:59.050Z,0
2022-09-20T00:45:59.666Z,0
2022-09-20T00:46:59.079Z,0
2022-09-20T00:47:58.891Z,0
2022-09-20T00:48:59.118Z,0
2022-09-20T00:49:59.406Z,0
2022-09-20T00:50:59.180Z,0
2022-09-20T00:51:59.457Z,0
2022-09-20T00:52:58.931Z,0
2022-09-20T00:53:59.214Z,0
2022-09-20T00:54:59.237Z,0
2022-09-20T00:55:58.995Z,0
2022-09-20T00:56:59.008Z,0
2022-09-20T00:57:59.278Z,0
2022-09-20T00:58:59.120Z,0
2022-09-20T00:59:59.056Z,0
2022-09-20T01:00:59.862Z,0
2022-09-20T01:01:59.369Z,0
2022-09-20T01:02:59.371Z,0
2022-09-20T01:03:59.196Z,0
2022-09-20T01:04:59.666Z,0
2022-09-20T01:05:59.693Z,0
2022-09-20T01:06:59.223Z,0
2022-09-20T01:07:59.216Z,0
2022-09-20T01:08:58.970Z,0
2022-09-20T01:09:59.249Z,0
2022-09-20T01:10:59.264Z,0
2022-09-20T01:11:59.804Z,0
2022-09-20T01:12:59.297Z,0
2022-09-20T01:13:59.440Z,0
2022-09-20T01:14:59.588Z,0
2022-09-20T01:15:59.366Z,0
2022-09-20T01:17:00.076Z,0
2022-09-20T01:18:00.359Z,0
2022-09-20T01:18:59.927Z,0
2022-09-20T01:19:59.746Z,0
2022-09-20T01:20:59.194Z,0
2022-09-20T01:21:59.473Z,0
2022-09-20T01:22:59.772Z,0
2022-09-20T01:23:59.787Z,0
2022-09-20T01:24:59.269Z,0
2022-09-20T01:26:00.057Z,0
2022-09-20T01:27:00.088Z,0
2022-09-20T01:27:59.836Z,0
2022-09-20T01:29:00.073Z,0
2022-09-20T01:29:59.610Z,0
2022-09-20T01:30:59.895Z,0
2022-09-20T01:32:00.323Z,0
2022-09-20T01:33:00.193Z,0
2022-09-20T01:34:00.243Z,0
2022-09-20T01:35:00.241Z,0
2022-09-20T01:36:00.030Z,0
2022-09-20T01:36:59.996Z,0
2022-09-20T01:37:59.761Z,0
2022-09-20T01:38:59.807Z,0
2022-09-20T01:39:59.923Z,0
2022-09-20T01:41:00.087Z,0
2022-09-20T01:42:00.351Z,0
2022-09-20T01:42:59.861Z,0
2022-09-20T01:44:00.005Z,0
2022-09-20T01:45:00.174Z,0
2022-09-20T01:46:00.247Z,0
2022-09-20T01:47:00.446Z,0
2022-09-20T01:48:00.215Z,0
2022-09-20T01:49:00.236Z,0
2022-09-20T01:50:00.268Z,0
2022-09-20T01:51:00.008Z,0
2022-09-20T01:52:00.328Z,0
2022-09-20T01:53:00.307Z,0
2022-09-20T01:54:00.622Z,0
2022-09-20T01:55:00.164Z,0
2022-09-20T01:56:00.357Z,0
2022-09-20T01:57:00.371Z,0
2022-09-20T01:58:00.142Z,0
2022-09-20T01:59:35.665Z,0
2022-09-20T02:00:00.420Z,0
2022-09-20T02:01:01.072Z,0
2022-09-20T02:02:01.070Z,0
2022-09-20T02:02:59.965Z,0
2022-09-20T02:04:00.504Z,0
2022-09-20T02:05:00.033Z,0
2022-09-20T02:06:00.599Z,0
2022-09-20T02:07:00.562Z,0
2022-09-20T02:08:00.874Z,0
2022-09-20T02:09:00.754Z,0
2022-09-20T02:10:00.348Z,0
2022-09-20T02:11:00.657Z,0
2022-09-20T02:12:00.646Z,0
2022-09-20T02:13:00.926Z,0
2022-09-20T02:14:00.747Z,0
2022-09-20T02:15:00.963Z,0
2022-09-20T02:16:00.723Z,0
2022-09-20T02:17:00.903Z,0
2022-09-20T02:18:00.653Z,0
2022-09-20T02:19:00.773Z,0
2022-09-20T02:20:00.807Z,0
2022-09-20T02:21:01.077Z,0
2022-09-20T02:22:01.106Z,0
2022-09-20T02:23:01.125Z,0
2022-09-20T02:24:01.177Z,0
2022-09-20T02:25:00.623Z,0
2022-09-20T02:26:00.922Z,0
2022-09-20T02:27:01.201Z,0
2022-09-20T02:28:00.966Z,0
2022-09-20T02:29:00.453Z,0
2022-09-20T02:30:01.247Z,0
2022-09-20T02:31:01.262Z,0
2022-09-20T02:32:01.681Z,0
2022-09-20T02:33:01.028Z,0
2022-09-20T02:34:01.309Z,0
2022-09-20T02:35:00.552Z,0
2022-09-20T02:36:01.100Z,0
2022-09-20T02:37:00.846Z,0
2022-09-20T02:38:01.170Z,0
2022-09-20T02:39:00.900Z,0
2022-09-20T02:40:01.489Z,0
2022-09-20T02:41:00.926Z,0
2022-09-20T02:42:01.237Z,0
2022-09-20T02:43:01.493Z,0
2022-09-20T02:44:01.240Z,0
2022-09-20T02:45:01.515Z,0
2022-09-20T02:46:01.599Z,0
2022-09-20T02:47:01.292Z,0
2022-09-20T02:48:01.056Z,0
2022-09-20T02:49:01.324Z,0
2022-09-20T02:50:01.368Z,0
2022-09-20T02:51:01.623Z,0
2022-09-20T02:52:01.398Z,0
2022-09-20T02:53:01.185Z,0
2022-09-20T02:54:01.715Z,0
2022-09-20T02:55:01.175Z,0
2022-09-20T02:56:01.266Z,0
2022-09-20T02:57:01.465Z,0
2022-09-20T02:58:01.491Z,0
2022-09-20T02:59:01.800Z,0
2022-09-20T03:00:01.529Z,0
2022-09-20T03:01:02.055Z,0
2022-09-20T03:02:01.590Z,0
2022-09-20T03:03:01.068Z,0
2022-09-20T03:04:01.611Z,0
2022-09-20T03:05:01.622Z,0
2022-09-20T03:06:01.637Z,0
2022-09-20T03:07:01.933Z,0
2022-09-20T03:08:03.139Z,0
2022-09-20T03:09:01.800Z,0
2022-09-20T03:10:01.994Z,0
2022-09-20T03:11:01.484Z,0
2022-09-20T03:12:02.067Z,0
2022-09-20T03:13:02.019Z,0
2022-09-20T03:14:01.786Z,0
2022-09-20T03:15:02.094Z,0
2022-09-20T03:16:01.566Z,0
2022-09-20T03:17:01.921Z,0
2022-09-20T03:18:02.228Z,0
2022-09-20T03:19:01.880Z,0
2022-09-20T03:20:01.892Z,0
2022-09-20T03:21:01.913Z,0
2022-09-20T03:22:01.932Z,0
2022-09-20T03:23:02.208Z,0
2022-09-20T03:24:01.795Z,0
2022-09-20T03:25:01.725Z,0
2022-09-20T03:26:02.046Z,0
2022-09-20T03:27:01.771Z,0
2022-09-20T03:28:02.349Z,0
2022-09-20T03:29:02.322Z,0
2022-09-20T03:30:02.341Z,0
2022-09-20T03:31:02.122Z,0
2022-09-20T03:32:02.513Z,0
2022-09-20T03:33:02.130Z,0
2022-09-20T03:34:02.411Z,0
2022-09-20T03:35:02.175Z,0
2022-09-20T03:36:02.452Z,0
2022-09-20T03:37:01.950Z,0
2022-09-20T03:38:02.569Z,0
2022-09-20T03:39:02.319Z,0
2022-09-20T03:40:03.022Z,0
2022-09-20T03:41:02.473Z,0
2022-09-20T03:42:02.571Z,0
2022-09-20T03:43:02.597Z,0
2022-09-20T03:44:02.640Z,0
2022-09-20T03:45:02.353Z,0
2022-09-20T03:46:02.940Z,0
2022-09-20T03:47:02.674Z,0
2022-09-20T03:48:02.888Z,0
2022-09-20T03:49:02.433Z,0
2022-09-20T03:50:02.684Z,0
2022-09-20T03:51:02.201Z,0
2022-09-20T03:52:02.892Z,0
2022-09-20T03:53:02.495Z,0
2022-09-20T03:54:02.546Z,0
2022-09-20T03:55:02.887Z,0
2022-09-20T03:56:02.560Z,0
2022-09-20T03:57:02.814Z,0
2022-09-20T03:58:04.756Z,0
2022-09-20T03:59:02.352Z,0
2022-09-20T04:00:02.926Z,0
2022-09-20T04:01:02.939Z,0
2022-09-20T04:02:02.744Z,0
2022-09-20T04:03:02.724Z,0
2022-09-20T04:04:02.692Z,0
2022-09-20T04:05:02.721Z,0
2022-09-20T04:06:02.740Z,0
2022-09-20T04:07:02.954Z,0
2022-09-20T04:08:02.871Z,0
2022-09-20T04:09:02.947Z,0
2022-09-20T04:10:03.097Z,0
2022-09-20T04:11:03.070Z,0
2022-09-20T04:12:02.907Z,0
2022-09-20T04:13:02.339Z,0
2022-09-20T04:14:03.905Z,0
2022-09-20T04:15:02.887Z,0
2022-09-20T04:16:02.705Z,0
2022-09-20T04:17:03.349Z,0
2022-09-20T04:18:03.395Z,0
2022-09-20T04:19:02.728Z,0
2022-09-20T04:20:02.978Z,0
2022-09-20T04:21:03.260Z,0
2022-09-20T04:22:02.503Z,0
2022-09-20T04:23:03.284Z,0
2022-09-20T04:24:03.397Z,0
2022-09-20T04:25:02.913Z,0
2022-09-20T04:26:03.347Z,0
2022-09-20T04:27:02.895Z,0
2022-09-20T04:28:03.381Z,0
2022-09-20T04:29:03.141Z,0
2022-09-20T04:30:03.430Z,0
2022-09-20T04:31:03.431Z,0
2022-09-20T04:32:03.942Z,0
2022-09-20T04:33:02.955Z,0
2022-09-20T04:34:02.967Z,0
2022-09-20T04:35:03.277Z,0
2022-09-20T04:36:03.017Z,0
2022-09-20T04:37:03.034Z,0
2022-09-20T04:38:03.552Z,0
2022-09-20T04:39:03.326Z,0
2022-09-20T04:40:03.975Z,0
2022-09-20T04:41:03.362Z,0
2022-09-20T04:42:03.630Z,0
2022-09-20T04:43:03.659Z,0
2022-09-20T04:44:03.408Z,0
2022-09-20T04:45:03.167Z,0
2022-09-20T04:46:04.190Z,4
2022-09-20T04:47:02.947Z,0
2022-09-20T04:48:03.561Z,0
2022-09-20T04:49:03.249Z,4
2022-09-20T04:50:03.260Z,4
2022-09-20T04:51:03.813Z,4
2022-09-20T04:52:03.816Z,4
2022-09-20T04:53:03.314Z,4
2022-09-20T04:54:03.838Z,8
2022-09-20T04:55:03.861Z,4
2022-09-20T04:56:03.868Z,8
2022-09-20T04:57:03.654Z,8
2022-09-20T04:58:03.917Z,12
2022-09-20T04:59:03.680Z,12
2022-09-20T05:00:03.701Z,12
2022-09-20T05:01:03.723Z,16
2022-09-20T05:02:04.397Z,12
2022-09-20T05:03:03.484Z,16
2022-09-20T05:04:03.813Z,16
2022-09-20T05:05:03.830Z,16
2022-09-20T05:06:04.104Z,24
2022-09-20T05:07:03.855Z,24
2022-09-20T05:08:04.082Z,28
2022-09-20T05:09:06.162Z,32
2022-09-20T05:10:03.617Z,36
2022-09-20T05:11:03.911Z,40
2022-09-20T05:12:03.667Z,44
2022-09-20T05:13:03.931Z,44
2022-09-20T05:14:03.948Z,52
2022-09-20T05:15:03.971Z,52
2022-09-20T05:16:03.778Z,60
2022-09-20T05:17:04.392Z,64
2022-09-20T05:18:04.051Z,68
2022-09-20T05:19:04.323Z,76
2022-09-20T05:20:04.108Z,76
2022-09-20T05:21:03.812Z,80
2022-09-20T05:22:04.366Z,88
2022-09-20T05:23:04.386Z,96
2022-09-20T05:24:03.877Z,104
2022-09-20T05:25:03.997Z,116
2022-09-20T05:26:03.893Z,124
2022-09-20T05:27:04.185Z,128
2022-09-20T05:28:03.971Z,136
2022-09-20T05:29:04.228Z,144
2022-09-20T05:30:09.487Z,144
2022-09-20T05:31:04.245Z,152
2022-09-20T05:32:05.006Z,156
2022-09-20T05:33:04.298Z,156
2022-09-20T05:34:04.084Z,148
2022-09-20T05:35:04.064Z,144
2022-09-20T05:36:04.661Z,144
2022-09-20T05:37:04.612Z,144
2022-09-20T05:38:04.125Z,152
2022-09-20T05:39:08.611Z,160
2022-09-20T05:40:04.683Z,164
2022-09-20T05:41:04.430Z,168
2022-09-20T05:42:04.710Z,184
2022-09-20T05:43:04.208Z,196
2022-09-20T05:44:04.240Z,208
2022-09-20T05:45:04.752Z,212
2022-09-20T05:46:04.510Z,216
2022-09-20T05:47:04.542Z,220
2022-09-20T05:48:04.564Z,224
2022-09-20T05:49:04.835Z,228
2022-09-20T05:50:04.629Z,232
2022-09-20T05:51:08.512Z,240
2022-09-20T05:52:04.653Z,256
2022-09-20T05:53:04.904Z,268
2022-09-20T05:54:04.921Z,264
2022-09-20T05:55:04.734Z,260
2022-09-20T05:56:04.711Z,256
2022-09-20T05:57:04.975Z,260
2022-09-20T05:58:04.998Z,264
2022-09-20T05:59:05.315Z,268
2022-09-20T06:00:04.514Z,280
2022-09-20T06:01:05.116Z,284
2022-09-20T06:02:05.166Z,284
2022-09-20T06:03:05.486Z,292
2022-09-20T06:04:04.854Z,312
2022-09-20T06:05:04.377Z,336
2022-09-20T06:06:05.074Z,348
2022-09-20T06:07:05.400Z,368
2022-09-20T06:08:04.913Z,380
2022-09-20T06:09:04.955Z,388
2022-09-20T06:10:04.978Z,400
2022-09-20T06:11:05.302Z,408
2022-09-20T06:12:05.242Z,408
2022-09-20T06:13:05.007Z,396
2022-09-20T06:14:04.942Z,380
2022-09-20T06:15:04.808Z,360
2022-09-20T06:16:05.064Z,348
2022-09-20T06:17:05.341Z,328
2022-09-20T06:18:04.849Z,308
2022-09-20T06:19:05.378Z,296
2022-09-20T06:20:05.041Z,316
2022-09-20T06:21:05.149Z,344
2022-09-20T06:22:10.501Z,388
2022-09-20T06:23:05.198Z,404
2022-09-20T06:24:05.454Z,416
2022-09-20T06:25:05.071Z,432
2022-09-20T06:26:05.278Z,484
2022-09-20T06:27:05.555Z,532
2022-09-20T06:28:05.275Z,560
2022-09-20T06:29:05.647Z,572
2022-09-20T06:30:05.565Z,544
2022-09-20T06:31:05.643Z,508
2022-09-20T06:32:05.603Z,524
2022-09-20T06:33:05.614Z,548
2022-09-20T06:34:05.141Z,556
2022-09-20T06:35:05.405Z,528
2022-09-20T06:36:06.347Z,540
2022-09-20T06:37:05.449Z,568
2022-09-20T06:38:05.531Z,664
2022-09-20T06:39:05.067Z,672
2022-09-20T06:40:05.528Z,652
2022-09-20T06:41:05.509Z,664
2022-09-20T06:42:05.524Z,692
2022-09-20T06:43:05.573Z,704
2022-09-20T06:44:05.671Z,708
2022-09-20T06:45:05.589Z,704
2022-09-20T06:46:05.961Z,676
2022-09-20T06:47:05.368Z,660
2022-09-20T06:48:05.631Z,696
2022-09-20T06:49:05.393Z,752
2022-09-20T06:50:05.939Z,840
2022-09-20T06:51:05.685Z,920
2022-09-20T06:52:05.969Z,920
2022-09-20T06:53:05.982Z,896
2022-09-20T06:54:06.071Z,916
2022-09-20T06:55:06.017Z,1088
2022-09-20T06:56:05.781Z,1252
2022-09-20T06:57:05.813Z,1336
2022-09-20T06:58:06.072Z,1328
2022-09-20T06:59:06.218Z,1280
2022-09-20T07:00:05.599Z,1212
2022-09-20T07:01:06.386Z,1116
2022-09-20T07:02:06.289Z,1032
2022-09-20T07:03:06.115Z,956
2022-09-20T07:04:05.918Z,900
2022-09-20T07:05:05.955Z,836
2022-09-20T07:06:05.708Z,804
2022-09-20T07:07:11.491Z,792
2022-09-20T07:08:05.998Z,812
2022-09-20T07:09:05.752Z,852
2022-09-20T07:10:06.262Z,928
2022-09-20T07:11:06.348Z,928
2022-09-20T07:12:06.077Z,984
2022-09-20T07:13:05.826Z,1032
2022-09-20T07:14:06.192Z,1072
2022-09-20T07:15:06.157Z,1104
2022-09-20T07:16:06.203Z,1144
2022-09-20T07:17:06.429Z,1076
2022-09-20T07:18:06.444Z,1084
2022-09-20T07:19:05.690Z,1216
2022-09-20T07:20:05.961Z,1284
2022-09-20T07:21:06.511Z,1320
2022-09-20T07:22:06.273Z,1372
2022-09-20T07:23:06.294Z,1412
2022-09-20T07:24:06.282Z,1440
2022-09-20T07:25:06.317Z,1408
2022-09-20T07:26:06.661Z,1408
2022-09-20T07:27:06.631Z,1428
2022-09-20T07:28:06.627Z,1400
2022-09-20T07:29:06.696Z,1392
2022-09-20T07:30:06.665Z,1388
2022-09-20T07:31:06.446Z,1460
2022-09-20T07:32:06.699Z,1448
2022-09-20T07:33:06.459Z,1436
2022-09-20T07:34:06.736Z,1444
2022-09-20T07:35:06.496Z,1456
2022-09-20T07:36:06.765Z,1420
2022-09-20T07:37:06.538Z,1384
2022-09-20T07:38:06.318Z,1324
2022-09-20T07:39:06.824Z,1236
2022-09-20T07:40:06.316Z,1112
2022-09-20T07:41:06.599Z,1080
2022-09-20T07:42:06.962Z,1084
2022-09-20T07:43:06.608Z,1236
2022-09-20T07:44:06.483Z,1200
2022-09-20T07:45:06.420Z,1088
2022-09-20T07:46:06.917Z,924
2022-09-20T07:47:07.005Z,756
2022-09-20T07:48:06.477Z,632
2022-09-20T07:49:07.019Z,608
2022-09-20T07:50:07.055Z,656
2022-09-20T07:51:11.501Z,760
2022-09-20T07:52:06.564Z,840
2022-09-20T07:53:07.076Z,904
2022-09-20T07:54:07.121Z,924
2022-09-20T07:55:06.861Z,1012
2022-09-20T07:56:06.898Z,1040
2022-09-20T07:57:07.182Z,1112
2022-09-20T07:58:07.255Z,1196
2022-09-20T07:59:07.353Z,1376
2022-09-20T08:00:06.966Z,1636
2022-09-20T08:01:07.254Z,1760
2022-09-20T08:02:07.236Z,1840
2022-09-20T08:03:07.044Z,1856
2022-09-20T08:04:06.783Z,1916
2022-09-20T08:05:07.306Z,1980
2022-09-20T08:06:06.813Z,2052
2022-09-20T08:07:06.835Z,2192
2022-09-20T08:08:06.860Z,2312
2022-09-20T08:09:12.618Z,2272
2022-09-20T08:10:06.645Z,2120
2022-09-20T08:11:07.171Z,1980
2022-09-20T08:14:14.247Z,1824
2022-09-20T08:15:24.064Z,1808
2022-09-20T08:16:24.115Z,1768
2022-09-20T08:17:23.850Z,1844
2022-09-20T08:18:24.136Z,1984
2022-09-20T08:19:23.926Z,2016
2022-09-20T08:20:24.517Z,2100
2022-09-20T08:21:24.425Z,2020
2022-09-20T08:22:24.459Z,1960
2022-09-20T08:23:31.131Z,2048
2022-09-20T08:24:24.005Z,2204
2022-09-20T08:25:24.537Z,2496
2022-09-20T08:26:24.268Z,2500
2022-09-20T08:27:24.290Z,2208
2022-09-20T08:28:24.572Z,2012
2022-09-20T08:29:24.649Z,1896
2022-09-20T08:30:29.974Z,1844
2022-09-20T08:31:24.678Z,1876
2022-09-20T08:32:24.642Z,1796
2022-09-20T08:33:24.389Z,1856
2022-09-20T08:34:24.190Z,1740
2022-09-20T08:35:24.436Z,1772
2022-09-20T08:36:24.717Z,1780
2022-09-20T08:37:24.468Z,1672
2022-09-20T08:39:58.086Z,1636
2022-09-20T08:40:08.757Z,1616
2022-09-20T08:41:08.138Z,1548
2022-09-20T08:42:08.411Z,1596
2022-09-20T08:43:12.949Z,1712
2022-09-20T08:44:08.421Z,1684
2022-09-20T08:45:08.829Z,1648
2022-09-20T08:46:13.037Z,1696
2022-09-20T08:47:08.506Z,1800
2022-09-20T08:48:08.521Z,1988
2022-09-20T08:49:13.226Z,2360
2022-09-20T08:50:21.595Z,2280
2022-09-20T08:51:13.014Z,2052
2022-09-20T08:52:12.925Z,1868
2022-09-20T08:53:08.618Z,1964
2022-09-20T08:54:08.626Z,2004
2022-09-20T08:55:14.599Z,2076
2022-09-20T08:56:08.674Z,2136
2022-09-20T08:57:08.688Z,1904
2022-09-20T08:58:14.215Z,1852
2022-09-20T08:59:08.739Z,1996
2022-09-20T09:00:08.489Z,2040
2022-09-20T09:01:09.594Z,2144
2022-09-20T09:02:08.558Z,2212
2022-09-20T09:03:08.814Z,2208
2022-09-20T09:04:09.200Z,2068
2022-09-20T09:05:08.577Z,1836
2022-09-20T09:06:20.175Z,1620
2022-09-20T09:07:08.875Z,1544
2022-09-20T09:08:11.627Z,1352
2022-09-20T09:09:08.922Z,1264
2022-09-20T09:10:08.702Z,1260
2022-09-20T09:11:08.951Z,1308
2022-09-20T09:12:08.968Z,1280
2022-09-20T09:13:08.989Z,1368
2022-09-20T09:14:09.270Z,1360
2022-09-20T09:15:09.031Z,1364
2022-09-20T09:16:09.481Z,1424
2022-09-20T09:17:09.620Z,1340
2022-09-20T09:18:09.090Z,1308
2022-09-20T09:19:09.088Z,1204
2022-09-20T09:20:08.894Z,1252
2022-09-20T09:21:08.934Z,1216
2022-09-20T09:22:08.925Z,1220
2022-09-20T09:23:08.946Z,1084
2022-09-20T09:24:09.468Z,1216
2022-09-20T09:25:09.220Z,1276
2022-09-20T09:26:09.508Z,1360
2022-09-20T09:27:09.257Z,1264
2022-09-20T09:28:09.533Z,1192
2022-09-20T09:29:09.054Z,1312
2022-09-20T09:30:09.325Z,1228
2022-09-20T09:31:09.590Z,1160
2022-09-20T09:32:09.690Z,1092
2022-09-20T09:33:09.709Z,1152
2022-09-20T09:34:09.514Z,1008
2022-09-20T09:35:09.161Z,980
2022-09-20T09:36:09.423Z,1096
2022-09-20T09:37:09.707Z,1424
2022-09-20T09:38:09.502Z,1524
2022-09-20T09:39:09.476Z,1520
2022-09-20T09:40:09.653Z,1616
2022-09-20T09:41:09.779Z,1392
2022-09-20T09:42:09.542Z,1144
2022-09-20T09:43:09.824Z,1120
2022-09-20T09:44:09.583Z,1012
2022-09-20T09:45:09.346Z,1112
2022-09-20T09:46:09.916Z,1304
2022-09-20T09:47:09.674Z,1432
2022-09-20T09:48:09.951Z,1484
2022-09-20T09:49:14.965Z,1572
2022-09-20T09:50:16.715Z,1696
2022-09-20T09:51:09.698Z,1380
2022-09-20T09:52:09.704Z,1568
2022-09-20T09:53:09.901Z,1756
2022-09-20T09:54:10.203Z,2172
2022-09-20T09:55:12.569Z,2664
2022-09-20T09:56:15.751Z,2832
2022-09-20T09:57:09.915Z,3072
2022-09-20T09:58:10.088Z,2788
2022-09-20T09:59:10.174Z,3020
2022-09-20T10:00:25.020Z,2792
2022-09-20T10:01:09.845Z,2656
2022-09-20T10:02:09.993Z,2644
2022-09-20T10:03:09.731Z,2440
2022-09-20T10:04:09.881Z,2564
2022-09-20T10:05:10.516Z,2528
2022-09-20T10:06:10.252Z,2340
2022-09-20T10:07:10.014Z,1856
2022-09-20T10:08:10.293Z,1536
2022-09-20T10:09:10.048Z,1388
2022-09-20T10:10:10.353Z,1252
2022-09-20T10:11:10.103Z,1248
2022-09-20T10:12:10.374Z,1208
2022-09-20T10:13:10.385Z,1116
2022-09-20T10:14:10.415Z,1012
2022-09-20T10:15:10.432Z,960
2022-09-20T10:16:10.126Z,932
2022-09-20T10:17:09.686Z,1008
2022-09-20T10:18:10.217Z,864
2022-09-20T10:19:10.254Z,844
2022-09-20T10:20:10.005Z,892
2022-09-20T10:21:10.597Z,1064
2022-09-20T10:22:10.289Z,1008
2022-09-20T10:24:07.409Z,872
2022-09-20T10:24:16.691Z,816
2022-09-20T10:25:17.494Z,908
2022-09-20T10:26:17.250Z,972
2022-09-20T10:27:17.273Z,972
2022-09-20T10:28:17.052Z,780
2022-09-20T10:29:17.040Z,780
2022-09-20T10:30:17.602Z,1076
2022-09-20T10:31:20.188Z,1060
2022-09-20T10:32:20.430Z,1008
2022-09-20T10:33:17.187Z,1012
2022-09-20T10:34:17.402Z,932
2022-09-20T10:35:16.904Z,976
2022-09-20T10:36:17.828Z,1088
2022-09-20T10:37:17.470Z,1004
2022-09-20T10:38:17.487Z,1288
2022-09-20T10:39:17.772Z,1592
2022-09-20T10:40:17.938Z,1812
2022-09-20T10:41:17.315Z,1372
2022-09-20T10:42:17.825Z,1404
2022-09-20T10:43:17.324Z,1404
2022-09-20T10:44:17.582Z,1008
2022-09-20T10:46:30.594Z,992
2022-09-20T10:46:42.077Z,1052
2022-09-20T10:47:41.364Z,1084
2022-09-20T10:48:41.630Z,1532
2022-09-20T10:49:41.910Z,1444
2022-09-20T10:50:41.916Z,996
2022-09-20T10:51:42.014Z,1216
2022-09-20T10:52:41.713Z,1444
2022-09-20T10:53:41.736Z,1720
2022-09-20T10:54:42.006Z,2216
2022-09-20T10:55:41.752Z,1432
2022-09-20T10:56:41.556Z,1108
2022-09-20T10:57:47.018Z,920
2022-09-20T10:58:41.825Z,852
2022-09-20T10:59:41.581Z,1056
2022-09-20T11:00:41.931Z,1064
2022-09-20T11:01:41.923Z,968
2022-09-20T11:02:41.901Z,1080
2022-09-20T11:03:42.164Z,1072
2022-09-20T11:04:41.919Z,1128
2022-09-20T11:05:42.203Z,1172
2022-09-20T11:06:42.222Z,1156
2022-09-20T11:07:42.317Z,960
2022-09-20T11:08:42.008Z,1000
2022-09-20T11:09:42.009Z,1256
2022-09-20T11:10:42.240Z,1516
2022-09-20T11:11:41.803Z,1368
2022-09-20T11:12:42.097Z,1096
2022-09-20T11:13:42.558Z,1076
2022-09-20T11:14:42.373Z,1136
2022-09-20T11:15:42.381Z,1172
2022-09-20T11:16:42.433Z,1236
2022-09-20T11:17:42.425Z,1136
2022-09-20T11:18:42.454Z,1140
2022-09-20T11:19:41.956Z,1148
2022-09-20T11:20:42.482Z,1220
2022-09-20T11:21:42.530Z,1176
2022-09-20T11:22:42.282Z,1132
2022-09-20T11:23:42.612Z,1248
2022-09-20T11:24:42.327Z,1236
2022-09-20T11:25:42.068Z,1368
2022-09-20T11:26:42.357Z,1664
2022-09-20T11:27:42.368Z,1980
2022-09-20T11:28:42.150Z,2024
2022-09-20T11:29:42.411Z,2208
2022-09-20T11:30:42.682Z,2656
2022-09-20T11:31:42.756Z,2900
2022-09-20T11:32:42.723Z,3028
2022-09-20T11:33:47.653Z,3368
2022-09-20T11:34:42.769Z,3636
2022-09-20T11:35:42.262Z,3716
2022-09-20T11:36:42.549Z,3932
2022-09-20T11:37:42.721Z,4020
2022-09-20T11:38:42.317Z,3580
2022-09-20T11:39:42.948Z,2960
2022-09-20T11:40:43.287Z,2744
2022-09-20T11:41:42.891Z,2276
2022-09-20T11:42:42.653Z,1968
2022-09-20T11:43:42.682Z,1728
2022-09-20T11:44:42.473Z,1640
2022-09-20T11:45:43.006Z,1492
2022-09-20T11:46:42.984Z,1376
2022-09-20T11:48:01.739Z,1272
2022-09-20T11:48:42.775Z,1216
2022-09-20T11:49:42.786Z,1132
2022-09-20T11:50:42.832Z,952
2022-09-20T11:51:42.823Z,804
2022-09-20T11:52:42.854Z,812
2022-09-20T11:53:43.799Z,924
2022-09-20T11:54:42.885Z,1120
2022-09-20T11:55:43.088Z,1364
2022-09-20T11:56:43.185Z,1500
2022-09-20T11:57:43.215Z,1488
2022-09-20T11:58:43.221Z,1444
2022-09-20T11:59:42.481Z,1628
2022-09-20T12:00:43.297Z,1788
2022-09-20T12:01:43.352Z,1628
2022-09-20T12:02:43.568Z,1364
2022-09-20T12:03:43.345Z,920
2022-09-20T12:04:44.590Z,712
2022-09-20T12:05:43.789Z,648
2022-09-20T12:06:43.117Z,668
2022-09-20T12:07:43.149Z,732
2022-09-20T12:08:43.161Z,800
2022-09-20T12:09:43.470Z,836
2022-09-20T12:10:43.470Z,944
2022-09-20T12:11:43.549Z,1132
2022-09-20T12:12:43.298Z,1252
2022-09-20T12:13:43.261Z,1216
2022-09-20T12:14:42.759Z,1192
2022-09-20T12:15:43.559Z,1236
2022-09-20T12:16:43.899Z,1256
2022-09-20T12:17:43.338Z,1276
2022-09-20T12:18:43.102Z,1324
2022-09-20T12:19:43.383Z,1396
2022-09-20T12:20:43.656Z,1492
2022-09-20T12:21:49.260Z,1536
2022-09-20T12:22:43.435Z,1564
2022-09-20T12:23:43.476Z,1608
2022-09-20T12:24:49.332Z,1624
2022-09-20T12:25:43.507Z,1604
2022-09-20T12:26:43.283Z,1600
2022-09-20T12:27:43.879Z,1612
2022-09-20T12:28:43.852Z,1620
2022-09-20T12:29:43.315Z,1604
2022-09-20T12:30:43.859Z,1528
2022-09-20T12:31:43.785Z,1468
2022-09-20T12:32:43.668Z,1424
2022-09-20T12:33:43.691Z,1356
2022-09-20T12:34:43.426Z,1288
2022-09-20T12:35:43.982Z,1284
2022-09-20T12:36:43.977Z,1304
2022-09-20T12:37:43.480Z,1324
2022-09-20T12:38:44.001Z,1376
2022-09-20T12:39:43.766Z,1432
2022-09-20T12:40:43.934Z,1496
2022-09-20T12:41:43.547Z,1580
2022-09-20T12:42:43.833Z,1672
2022-09-20T12:43:44.189Z,1756
2022-09-20T12:44:44.130Z,1796
2022-09-20T12:45:44.088Z,1748
2022-09-20T12:46:43.916Z,1624
2022-09-20T12:47:44.189Z,1500
2022-09-20T12:48:44.222Z,1436
2022-09-20T12:49:43.460Z,1376
2022-09-20T12:50:44.256Z,1300
2022-09-20T12:51:43.741Z,1276
2022-09-20T12:52:43.505Z,1296
2022-09-20T12:53:44.082Z,1328
2022-09-20T12:54:43.809Z,1380
2022-09-20T12:55:43.640Z,1472
2022-09-20T12:56:43.861Z,1580
2022-09-20T12:57:44.127Z,1676
2022-09-20T12:58:44.414Z,1784
2022-09-20T12:59:44.487Z,1904
2022-09-20T13:00:44.362Z,1972
2022-09-20T13:01:44.366Z,1984
2022-09-20T13:02:43.959Z,1924
2022-09-20T13:03:43.983Z,1884
2022-09-20T13:04:44.545Z,1864
2022-09-20T13:05:44.582Z,1784
2022-09-20T13:06:44.550Z,1788
2022-09-20T13:07:49.650Z,1744
2022-09-20T13:08:44.070Z,1680
2022-09-20T13:09:44.349Z,1644
2022-09-20T13:10:44.368Z,1516
2022-09-20T13:11:44.636Z,1376
2022-09-20T13:12:44.678Z,1308
2022-09-20T13:13:44.515Z,1392
2022-09-20T13:14:44.454Z,1472
2022-09-20T13:15:44.577Z,1672
2022-09-20T13:16:44.536Z,1860
2022-09-20T13:17:44.504Z,1948
2022-09-20T13:18:44.791Z,1948
2022-09-20T13:19:44.831Z,1876
2022-09-20T13:20:44.832Z,1908
2022-09-20T13:21:44.591Z,2036
2022-09-20T13:22:44.878Z,2060
2022-09-20T13:23:44.924Z,2056
2022-09-20T13:24:44.653Z,1988
2022-09-20T13:25:44.673Z,1876
2022-09-20T13:26:44.689Z,1688
2022-09-20T13:27:44.457Z,1520
2022-09-20T13:28:44.465Z,1664
2022-09-20T13:29:44.743Z,2076
2022-09-20T13:30:44.770Z,2600
2022-09-20T13:31:45.290Z,2736
2022-09-20T13:32:45.055Z,2400
2022-09-20T13:33:44.574Z,2456
2022-09-20T13:34:44.601Z,2092
2022-09-20T13:35:45.123Z,1748
2022-09-20T13:36:44.982Z,1896
2022-09-20T13:37:44.920Z,1836
2022-09-20T13:38:45.183Z,1776
2022-09-20T13:39:44.688Z,1756
2022-09-20T13:40:45.353Z,1744
2022-09-20T13:41:44.727Z,1732
2022-09-20T13:42:44.994Z,1712
2022-09-20T13:43:45.306Z,1688
2022-09-20T13:44:45.036Z,1676
2022-09-20T13:45:44.954Z,1536
2022-09-20T13:46:45.073Z,1464
2022-09-20T13:47:45.548Z,1556
2022-09-20T13:48:44.856Z,1504
2022-09-20T13:49:45.394Z,1300
2022-09-20T13:50:56.287Z,1552
2022-09-20T13:51:44.662Z,1608
2022-09-20T13:52:45.223Z,1596
2022-09-20T13:53:49.658Z,1616
2022-09-20T13:54:45.231Z,1624
2022-09-20T13:55:45.254Z,1636
2022-09-20T13:56:45.025Z,1648
2022-09-20T13:57:44.778Z,1648
2022-09-20T13:58:45.320Z,1676